createdAt,value
2022-10-12T00:01:26.375Z,12.42
2022-10-12T00:04:28.327Z,12.36
2022-10-12T00:07:30.024Z,12.26
2022-10-12T00:10:31.625Z,12.20
2022-10-12T00:13:33.738Z,12.25
2022-10-12T00:16:35.357Z,12.51
2022-10-12T00:19:37.401Z,12.60
2022-10-12T00:22:39.222Z,12.57
2022-10-12T00:25:42.347Z,12.49
2022-10-12T00:28:44.647Z,12.39
2022-10-12T00:31:46.273Z,12.28
2022-10-12T00:34:47.854Z,12.18
2022-10-12T00:37:54.692Z,12.09
2022-10-12T00:40:56.634Z,12.06
2022-10-12T00:43:58.963Z,12.20
2022-10-12T00:47:07.900Z,12.41
2022-10-12T00:50:26.051Z,12.49
2022-10-12T00:53:32.267Z,12.55
2022-10-12T00:56:38.630Z,12.52
2022-10-12T00:59:48.283Z,12.53
2022-10-12T01:02:53.108Z,12.59
2022-10-12T01:05:55.719Z,12.60
2022-10-12T01:08:58.165Z,12.54
2022-10-12T01:12:00.294Z,12.58
2022-10-12T01:15:02.908Z,12.54
2022-10-12T01:18:12.141Z,12.44
2022-10-12T01:21:21.562Z,12.44
2022-10-12T01:24:43.091Z,12.50
2022-10-12T01:27:52.428Z,12.69
2022-10-12T01:31:08.955Z,12.70
2022-10-12T01:34:36.731Z,12.76
2022-10-12T01:37:48.967Z,12.99
2022-10-12T01:41:32.075Z,12.90
2022-10-12T01:44:34.142Z,13.04
2022-10-12T01:47:38.760Z,12.93
2022-10-12T01:50:50.858Z,12.83
2022-10-12T01:54:11.612Z,12.73
2022-10-12T01:57:20.603Z,12.80
2022-10-12T02:00:22.367Z,12.69
2022-10-12T02:04:10.590Z,12.81
2022-10-12T02:07:22.451Z,12.91
2022-10-12T02:10:37.524Z,13.03
2022-10-12T02:13:44.704Z,12.96
2022-10-12T02:16:52.096Z,12.82
2022-10-12T02:19:58.110Z,12.65
2022-10-12T02:23:02.202Z,12.67
2022-10-12T02:26:05.262Z,12.78
2022-10-12T02:29:12.001Z,12.74
2022-10-12T02:32:28.689Z,12.79
2022-10-12T02:35:37.440Z,12.77
2022-10-12T02:38:47.710Z,12.80
2022-10-12T02:42:01.143Z,12.77
2022-10-12T02:45:08.167Z,12.69
2022-10-12T02:48:14.445Z,12.63
2022-10-12T02:51:17.806Z,12.67
2022-10-12T02:54:20.743Z,12.68
2022-10-12T02:57:22.600Z,12.51
2022-10-12T03:00:24.196Z,12.59
2022-10-12T03:03:25.783Z,12.62
2022-10-12T03:06:27.804Z,12.56
2022-10-12T03:09:29.802Z,12.54
2022-10-12T03:12:31.582Z,12.62
2022-10-12T03:15:33.427Z,12.46
2022-10-12T03:18:35.793Z,12.50
2022-10-12T03:21:37.468Z,12.47
2022-10-12T03:24:39.453Z,12.52
2022-10-12T03:27:41.295Z,12.61
2022-10-12T03:30:44.553Z,12.70
2022-10-12T03:33:46.502Z,12.65
2022-10-12T03:36:48.078Z,12.47
2022-10-12T03:39:50.330Z,12.66
2022-10-12T03:42:51.929Z,12.53
2022-10-12T03:45:54.255Z,12.40
2022-10-12T03:48:56.194Z,12.46
2022-10-12T03:51:58.468Z,12.30
2022-10-12T03:55:00.136Z,12.34
2022-10-12T03:58:02.009Z,12.13
2022-10-12T04:01:03.864Z,12.03
2022-10-12T04:04:05.941Z,11.98
2022-10-12T04:07:08.014Z,11.82
2022-10-12T04:10:09.719Z,11.72
2022-10-12T04:13:11.871Z,11.75
2022-10-12T04:16:13.923Z,11.72
2022-10-12T04:19:15.653Z,11.74
2022-10-12T04:22:17.736Z,11.76
2022-10-12T04:25:19.416Z,11.70
2022-10-12T04:28:21.304Z,11.75
2022-10-12T04:31:22.992Z,11.69
2022-10-12T04:34:24.590Z,11.91
2022-10-12T04:37:27.730Z,11.66
2022-10-12T04:40:29.660Z,11.65
2022-10-12T04:43:31.251Z,11.62
2022-10-12T04:46:33.345Z,11.60
2022-10-12T04:49:35.199Z,11.69
2022-10-12T04:52:36.770Z,11.64
2022-10-12T04:55:38.328Z,11.65
2022-10-12T04:58:40.277Z,11.53
2022-10-12T05:01:42.167Z,11.48
2022-10-12T05:04:44.326Z,11.43
2022-10-12T05:07:46.013Z,11.41
2022-10-12T05:10:48.125Z,11.53
2022-10-12T05:13:49.686Z,11.51
2022-10-12T05:16:51.600Z,11.67
2022-10-12T05:19:53.290Z,11.65
2022-10-12T05:22:57.710Z,11.65
2022-10-12T05:25:59.351Z,11.71
2022-10-12T05:29:01.627Z,11.75
2022-10-12T05:32:03.763Z,11.73
2022-10-12T05:35:06.207Z,11.79
2022-10-12T05:38:08.008Z,11.81
2022-10-12T05:41:09.673Z,11.82
2022-10-12T05:44:11.553Z,11.79
2022-10-12T05:47:13.265Z,11.89
2022-10-12T05:50:14.903Z,11.91
2022-10-12T05:53:16.730Z,11.88
2022-10-12T05:56:18.561Z,11.86
2022-10-12T05:59:20.364Z,12.06
2022-10-12T06:02:22.380Z,12.16
2022-10-12T06:05:25.126Z,12.20
2022-10-12T06:08:27.319Z,12.30
2022-10-12T06:11:31.462Z,12.35
2022-10-12T06:14:36.091Z,12.55
2022-10-12T06:17:37.679Z,12.74
2022-10-12T06:20:39.799Z,12.60
2022-10-12T06:23:44.191Z,12.78
2022-10-12T06:26:45.787Z,12.84
2022-10-12T06:29:47.709Z,13.24
2022-10-12T06:32:49.625Z,13.42
2022-10-12T06:35:51.843Z,13.82
2022-10-12T06:38:53.637Z,14.28
2022-10-12T06:41:55.178Z,13.94
2022-10-12T06:44:57.340Z,13.89
2022-10-12T06:47:58.934Z,14.07
2022-10-12T06:51:00.981Z,13.95
2022-10-12T06:54:02.573Z,14.01
2022-10-12T06:57:05.954Z,14.19
2022-10-12T07:00:08.748Z,14.21
2022-10-12T07:03:12.785Z,14.47
2022-10-12T07:06:15.023Z,14.52
2022-10-12T07:09:17.716Z,14.77
2022-10-12T07:12:19.450Z,14.83
2022-10-12T07:15:21.221Z,15.07
2022-10-12T07:18:22.856Z,14.99
2022-10-12T07:21:24.455Z,15.02
2022-10-12T07:24:26.395Z,14.83
2022-10-12T07:27:28.086Z,15.25
2022-10-12T07:30:29.642Z,15.31
2022-10-12T07:33:35.752Z,15.51
2022-10-12T07:36:58.029Z,15.73
2022-10-12T07:39:58.861Z,15.44
2022-10-12T07:43:15.136Z,15.29
2022-10-12T07:46:17.688Z,15.29
2022-10-12T07:49:19.443Z,15.32
2022-10-12T07:52:21.494Z,15.36
2022-10-12T07:55:23.059Z,15.59
2022-10-12T07:58:24.820Z,15.77
2022-10-12T08:01:29.893Z,15.98
2022-10-12T08:04:31.871Z,15.88
2022-10-12T08:07:33.496Z,15.97
2022-10-12T08:10:36.049Z,15.50
2022-10-12T08:13:38.289Z,15.94
2022-10-12T08:16:39.974Z,15.50
2022-10-12T08:19:41.610Z,15.62
2022-10-12T08:22:43.611Z,15.84
2022-10-12T08:25:53.222Z,16.08
2022-10-12T08:28:55.202Z,16.21
2022-10-12T08:31:56.879Z,16.09
2022-10-12T08:34:59.121Z,16.64
2022-10-12T08:38:00.689Z,17.29
2022-10-12T08:41:11.345Z,17.50
2022-10-12T08:44:21.290Z,17.06
2022-10-12T08:47:40.766Z,17.08
2022-10-12T08:50:51.524Z,16.83
2022-10-12T08:54:12.355Z,17.20
2022-10-12T08:57:17.696Z,17.79
2022-10-12T09:00:20.040Z,17.56
2022-10-12T09:03:38.967Z,17.61
2022-10-12T09:06:43.340Z,17.61
2022-10-12T09:09:45.265Z,17.68
2022-10-12T09:13:14.097Z,17.57
2022-10-12T09:16:26.070Z,17.50
2022-10-12T09:19:37.299Z,17.69
2022-10-12T09:22:39.757Z,18.20
2022-10-12T09:25:42.749Z,18.82
2022-10-12T09:29:06.117Z,18.96
2022-10-12T09:32:23.506Z,20.04
2022-10-12T09:35:26.105Z,22.27
2022-10-12T09:38:27.994Z,22.40
2022-10-12T09:41:34.476Z,21.00
2022-10-12T09:44:49.234Z,19.01
2022-10-12T09:48:10.480Z,19.17
2022-10-12T09:51:16.882Z,18.45
2022-10-12T09:54:22.419Z,18.44
2022-10-12T09:57:46.399Z,17.88
2022-10-12T10:01:12.767Z,17.69
2022-10-12T10:04:24.297Z,17.85
2022-10-12T10:07:30.682Z,17.15
2022-10-12T10:10:33.748Z,17.52
2022-10-12T10:13:38.009Z,17.09
2022-10-12T10:16:48.620Z,16.85
2022-10-12T10:19:51.960Z,16.20
2022-10-12T10:22:53.646Z,16.17
2022-10-12T10:26:06.418Z,16.11
2022-10-12T10:29:32.929Z,16.22
2022-10-12T10:32:34.871Z,16.46
2022-10-12T10:35:36.943Z,16.67
2022-10-12T10:39:16.498Z,16.79
2022-10-12T10:42:22.019Z,16.61
2022-10-12T10:45:26.954Z,16.82
2022-10-12T10:48:31.698Z,16.72
2022-10-12T10:51:51.450Z,16.49
2022-10-12T10:55:16.739Z,16.57
2022-10-12T10:58:34.599Z,16.62
2022-10-12T11:01:45.954Z,16.85
2022-10-12T11:04:53.558Z,16.78
2022-10-12T11:07:58.679Z,16.73
2022-10-12T11:11:11.467Z,16.68
2022-10-12T11:14:18.120Z,16.95
2022-10-12T11:17:29.373Z,16.97
2022-10-12T11:20:39.974Z,16.77
2022-10-12T11:23:52.192Z,16.90
2022-10-12T11:27:19.747Z,17.04
2022-10-12T11:30:24.231Z,16.87
2022-10-12T11:33:35.159Z,16.72
2022-10-12T11:36:51.277Z,16.96
2022-10-12T11:40:08.468Z,16.94
2022-10-12T11:43:19.945Z,17.28
2022-10-12T11:46:34.950Z,17.25
2022-10-12T11:49:47.431Z,17.28
2022-10-12T11:52:50.838Z,17.42
2022-10-12T11:55:55.498Z,17.17
2022-10-12T11:59:19.000Z,17.31
2022-10-12T12:02:23.578Z,17.23
2022-10-12T12:05:31.901Z,17.38
2022-10-12T12:08:39.867Z,17.73
2022-10-12T12:11:41.467Z,17.59
2022-10-12T12:14:50.800Z,17.75
2022-10-12T12:18:10.908Z,17.50
2022-10-12T12:21:12.838Z,17.44
2022-10-12T12:24:17.177Z,17.33
2022-10-12T12:27:35.196Z,17.41
2022-10-12T12:30:40.239Z,17.38
2022-10-12T12:33:46.490Z,17.56
2022-10-12T12:36:51.936Z,17.67
2022-10-12T12:39:56.389Z,17.77
2022-10-12T12:43:28.898Z,17.97
2022-10-12T12:46:52.594Z,17.87
2022-10-12T12:49:57.789Z,18.14
2022-10-12T12:53:14.664Z,17.98
2022-10-12T12:57:05.831Z,17.71
2022-10-12T13:00:16.071Z,17.96
2022-10-12T13:03:36.226Z,17.98
2022-10-12T13:07:08.899Z,18.05
2022-10-12T13:10:29.173Z,17.65
2022-10-12T13:13:45.577Z,17.71
2022-10-12T13:20:38.572Z,17.41
2022-10-12T13:23:40.774Z,17.43
2022-10-12T13:26:46.825Z,17.62
2022-10-12T13:29:57.191Z,17.43
2022-10-12T13:33:02.755Z,17.74
2022-10-12T13:36:08.149Z,18.04
2022-10-12T13:39:21.685Z,17.96
2022-10-12T13:42:31.245Z,18.04
2022-10-12T13:45:33.030Z,18.05
2022-10-12T13:48:58.302Z,18.06
2022-10-12T13:51:59.353Z,17.86
2022-10-12T13:55:14.533Z,17.99
2022-10-12T13:58:27.307Z,17.97
2022-10-12T14:01:29.333Z,18.22
2022-10-12T14:04:33.145Z,17.86
2022-10-12T14:07:38.269Z,18.02
2022-10-12T14:10:41.602Z,17.93
2022-10-12T14:13:45.793Z,18.08
2022-10-12T14:16:50.046Z,17.72
2022-10-12T14:19:55.487Z,17.60
2022-10-12T14:23:00.207Z,17.53
2022-10-12T14:26:02.050Z,17.54
2022-10-12T14:29:32.638Z,17.27
2022-10-12T14:32:42.459Z,17.43
2022-10-12T14:35:49.643Z,17.43
2022-10-12T14:38:53.156Z,17.43
2022-10-12T14:41:54.805Z,17.38
2022-10-12T14:44:56.931Z,17.32
2022-10-12T14:48:00.261Z,17.35
2022-10-12T14:51:01.901Z,17.32
2022-10-12T14:54:05.172Z,17.18
2022-10-12T14:57:17.678Z,17.10
2022-10-12T15:00:22.276Z,17.26
2022-10-12T15:03:23.906Z,17.06
2022-10-12T15:06:25.759Z,17.07
2022-10-12T15:09:27.664Z,16.85
2022-10-12T15:12:33.081Z,16.67
2022-10-12T15:15:42.907Z,16.50
2022-10-12T15:18:44.804Z,16.34
2022-10-12T15:21:47.829Z,16.26
2022-10-12T15:24:50.813Z,15.89
2022-10-12T15:27:52.413Z,15.81
2022-10-12T15:34:16.186Z,15.51
2022-10-12T15:37:18.294Z,15.50
2022-10-12T15:40:20.935Z,15.40
2022-10-12T15:43:22.511Z,15.27
2022-10-12T15:46:24.544Z,15.03
2022-10-12T15:49:26.770Z,14.97
2022-10-12T15:52:28.362Z,14.86
2022-10-12T15:55:31.403Z,14.93
2022-10-12T15:58:33.133Z,14.81
2022-10-12T16:01:36.989Z,14.72
2022-10-12T16:04:38.651Z,14.65
2022-10-12T16:07:40.233Z,14.51
2022-10-12T16:10:42.318Z,14.37
2022-10-12T16:13:49.983Z,14.31
2022-10-12T16:16:54.297Z,13.97
2022-10-12T16:19:55.867Z,13.88
2022-10-12T16:22:58.949Z,13.89
2022-10-12T16:26:03.685Z,13.94
2022-10-12T16:29:05.814Z,13.77
2022-10-12T16:32:07.507Z,13.57
2022-10-12T16:35:10.024Z,13.64
2022-10-12T16:38:11.902Z,13.63
2022-10-12T16:41:17.298Z,13.85
2022-10-12T16:44:19.024Z,13.96
2022-10-12T16:47:20.785Z,13.70
2022-10-12T16:50:24.590Z,13.59
2022-10-12T16:53:26.924Z,13.49
2022-10-12T16:56:28.542Z,13.49
2022-10-12T16:59:30.361Z,13.28
2022-10-12T17:02:32.259Z,13.07
2022-10-12T17:05:34.137Z,13.22
2022-10-12T17:08:38.940Z,13.24
2022-10-12T17:11:41.185Z,13.30
2022-10-12T17:14:42.957Z,13.17
2022-10-12T17:17:44.716Z,13.38
2022-10-12T17:20:48.251Z,13.34
2022-10-12T17:23:55.459Z,13.37
2022-10-12T17:26:59.089Z,13.31
2022-10-12T17:30:00.877Z,13.28
2022-10-12T17:33:02.476Z,13.35
2022-10-12T17:36:09.103Z,13.38
2022-10-12T17:39:11.132Z,13.33
2022-10-12T17:42:13.707Z,13.34
2022-10-12T17:45:15.704Z,13.33
2022-10-12T17:48:17.302Z,13.25
2022-10-12T17:51:19.258Z,12.98
2022-10-12T17:54:22.293Z,12.99
2022-10-12T17:57:24.282Z,13.07
2022-10-12T18:00:26.522Z,13.05
2022-10-12T18:03:28.916Z,12.98
2022-10-12T18:06:31.898Z,12.98
2022-10-12T18:09:33.561Z,13.12
2022-10-12T18:12:35.561Z,13.00
2022-10-12T18:15:43.949Z,12.92
2022-10-12T18:18:45.911Z,12.63
2022-10-12T18:21:47.703Z,12.34
2022-10-12T18:24:49.828Z,12.35
2022-10-12T18:27:52.465Z,12.02
2022-10-12T18:30:54.334Z,11.82
2022-10-12T18:33:57.450Z,11.79
2022-10-12T18:37:00.083Z,12.04
2022-10-12T18:40:02.455Z,12.29
2022-10-12T18:43:05.393Z,12.40
2022-10-12T18:46:09.946Z,12.31
2022-10-12T18:49:12.438Z,11.98
2022-10-12T18:52:15.814Z,11.99
2022-10-12T18:55:18.158Z,12.10
2022-10-12T18:58:20.756Z,12.33
2022-10-12T19:01:25.246Z,12.00
2022-10-12T19:04:28.021Z,12.07
2022-10-12T19:07:30.277Z,12.24
2022-10-12T19:10:35.689Z,12.23
2022-10-12T19:13:39.083Z,12.08
2022-10-12T19:16:42.722Z,11.99
2022-10-12T19:19:45.617Z,12.04
2022-10-12T19:22:47.946Z,11.92
2022-10-12T19:25:50.352Z,11.93
2022-10-12T19:28:55.365Z,11.95
2022-10-12T19:31:57.520Z,11.93
2022-10-12T19:34:59.822Z,11.73
2022-10-12T19:38:01.999Z,11.91
2022-10-12T19:41:06.227Z,11.95
2022-10-12T19:44:08.492Z,12.03
2022-10-12T19:47:11.417Z,12.07
2022-10-12T19:50:13.436Z,11.80
2022-10-12T19:53:15.501Z,11.70
2022-10-12T19:56:21.405Z,11.57
2022-10-12T19:59:23.857Z,11.70
2022-10-12T20:02:26.314Z,11.66
2022-10-12T20:05:28.604Z,11.62
2022-10-12T20:08:30.910Z,11.12
2022-10-12T20:11:33.034Z,11.22
2022-10-12T20:14:34.680Z,11.17
2022-10-12T20:17:37.882Z,11.24
2022-10-12T20:20:43.095Z,11.49
2022-10-12T20:23:45.351Z,11.24
2022-10-12T20:26:47.315Z,11.18
2022-10-12T20:29:49.185Z,11.16
2022-10-12T20:32:55.326Z,11.22
2022-10-12T20:35:57.373Z,11.34
2022-10-12T20:39:00.050Z,11.25
2022-10-12T20:42:01.676Z,11.21
2022-10-12T20:45:04.106Z,11.45
2022-10-12T20:48:06.453Z,11.56
2022-10-12T20:51:09.919Z,11.30
2022-10-12T20:54:18.607Z,11.22
2022-10-12T20:57:20.357Z,11.12
2022-10-12T21:00:22.416Z,11.09
2022-10-12T21:03:24.077Z,10.96
2022-10-12T21:06:26.917Z,10.84
2022-10-12T21:09:28.611Z,10.70
2022-10-12T21:12:30.610Z,10.54
2022-10-12T21:15:32.180Z,10.35
2022-10-12T21:18:37.838Z,10.18
2022-10-12T21:21:39.852Z,9.91
2022-10-12T21:24:41.488Z,9.82
2022-10-12T21:27:43.677Z,9.95
2022-10-12T21:30:46.823Z,9.73
2022-10-12T21:33:48.542Z,10.02
2022-10-12T21:36:50.512Z,9.81
2022-10-12T21:39:54.520Z,9.76
2022-10-12T21:42:59.333Z,9.82
2022-10-12T21:46:05.632Z,9.84
2022-10-12T21:49:08.765Z,9.61
2022-10-12T21:52:10.465Z,9.58
2022-10-12T21:55:12.039Z,9.51
2022-10-12T21:58:13.877Z,9.66
2022-10-12T22:01:18.433Z,9.55
2022-10-12T22:04:20.031Z,9.34
2022-10-12T22:07:21.956Z,9.25
2022-10-12T22:10:23.576Z,9.19
2022-10-12T22:13:25.275Z,9.28
2022-10-12T22:16:29.224Z,9.62
2022-10-12T22:19:31.114Z,9.82
2022-10-12T22:22:33.238Z,9.68
2022-10-12T22:25:35.253Z,9.65
2022-10-12T22:28:36.847Z,10.00
2022-10-12T22:31:40.200Z,10.07
2022-10-12T22:34:41.760Z,9.87
2022-10-12T22:37:43.574Z,9.81
2022-10-12T22:40:54.399Z,9.80
2022-10-12T22:43:57.478Z,9.81
2022-10-12T22:46:59.064Z,9.75
2022-10-12T22:50:00.864Z,9.96
2022-10-12T22:53:02.654Z,10.21
2022-10-12T22:56:11.944Z,10.29
2022-10-12T22:59:15.650Z,10.31
2022-10-12T23:02:17.861Z,10.26
2022-10-12T23:05:20.121Z,10.26
2022-10-12T23:08:21.687Z,10.42
2022-10-12T23:11:26.751Z,10.53
2022-10-12T23:14:28.558Z,10.46
2022-10-12T23:17:30.104Z,10.73
2022-10-12T23:20:31.664Z,10.74
2022-10-12T23:23:34.893Z,10.74
2022-10-12T23:26:36.582Z,10.82
2022-10-12T23:29:38.826Z,10.58
2022-10-12T23:32:40.949Z,10.45
2022-10-12T23:35:42.628Z,10.45
2022-10-12T23:38:45.686Z,10.43
2022-10-12T23:41:47.906Z,10.42
2022-10-12T23:44:49.878Z,10.41
2022-10-12T23:47:51.443Z,10.43
2022-10-12T23:50:53.630Z,10.48
2022-10-12T23:53:55.548Z,10.40
2022-10-12T23:56:57.301Z,10.38
2022-10-12T23:59:59.252Z,10.35
